Time;durP1;ratioP1;P1;durP2;ratioP2;P2;SDS_P1;SDS_P2;PMS_P1;PMS_P2;Temp;Humidity;BMP_temperature;BMP_pressure;BME280_temperature;BME280_humidity;BME280_pressure;Samples;Min_cycle;Max_cycle;Signal;HPM_P1;HPM_P2
2021/03/29 00:02:19;;;;;;;26.23;3.67;;;;;;;10.65;100.00;102829.00;5052609;28;20115;-69
2021/03/29 00:04:45;;;;;;;22.05;4.18;;;;;;;10.67;100.00;102829.66;5052358;28;20127;-70
2021/03/29 00:07:11;;;;;;;28.38;5.00;;;;;;;10.67;100.00;102832.38;5052605;28;20131;-69
2021/03/29 00:09:40;;;;;;;30.67;3.83;;;;;;;10.67;100.00;102827.75;5052306;28;20060;-69
2021/03/29 00:12:08;;;;;;;16.90;3.13;;;;;;;10.67;100.00;102826.91;5052273;28;20069;-69
2021/03/29 00:14:35;;;;;;;34.17;4.82;;;;;;;10.68;100.00;102823.13;5052419;28;20052;-69
2021/03/29 00:17:01;;;;;;;22.60;4.25;;;;;;;10.68;100.00;102828.59;5052182;28;20032;-68
2021/03/29 00:19:28;;;;;;;37.75;5.32;;;;;;;10.66;100.00;102828.81;5052443;28;20040;-69
2021/03/29 00:21:54;;;;;;;35.60;5.40;;;;;;;10.65;100.00;102831.72;5052211;28;20067;-69
2021/03/29 00:24:21;;;;;;;25.92;4.10;;;;;;;10.64;100.00;102832.78;5051847;28;20033;-68
2021/03/29 00:26:47;;;;;;;28.17;5.13;;;;;;;10.61;100.00;102824.97;5052157;28;20052;-70
2021/03/29 00:29:13;;;;;;;20.02;3.40;;;;;;;10.62;100.00;102840.31;5051936;28;20036;-68
2021/03/29 00:31:40;;;;;;;21.80;3.65;;;;;;;10.61;100.00;102827.69;5051781;28;20041;-68
2021/03/29 00:34:08;;;;;;;22.20;3.05;;;;;;;10.60;100.00;102831.47;5051878;28;20483;-69
2021/03/29 00:36:34;;;;;;;25.48;4.05;;;;;;;10.61;100.00;102827.69;5051989;28;20479;-69
2021/03/29 00:39:01;;;;;;;23.27;3.47;;;;;;;10.61;100.00;102839.47;5051909;28;20045;-69
2021/03/29 00:41:27;;;;;;;30.05;4.70;;;;;;;10.60;100.00;102837.78;5051274;28;20040;-69
2021/03/29 00:43:54;;;;;;;17.65;4.00;;;;;;;10.62;100.00;102834.88;5051628;28;20033;-68
2021/03/29 00:46:21;;;;;;;23.40;4.85;;;;;;;10.63;100.00;102833.81;5051808;28;20041;-70
2021/03/29 00:48:49;;;;;;;29.02;4.75;;;;;;;10.61;100.00;102838.63;5051601;28;20037;-68
2021/03/29 00:51:28;;;;;;;20.23;3.92;;;;;;;10.62;100.00;102834.88;5051530;28;20368;-68
2021/03/29 00:53:57;;;;;;;35.35;5.55;;;;;;;10.61;100.00;102827.69;5051403;28;20475;-68
2021/03/29 00:56:23;;;;;;;27.95;4.28;;;;;;;10.60;100.00;102839.69;5051364;28;20410;-69
2021/03/29 00:58:51;;;;;;;25.67;3.38;;;;;;;10.57;100.00;102839.00;5051495;28;20068;-70
2021/03/29 01:01:24;;;;;;;22.35;3.90;;;;;;;10.57;100.00;102827.22;5051257;28;20487;-69
2021/03/29 01:03:54;;;;;;;23.35;3.47;;;;;;;10.56;100.00;102842.75;5051644;28;20043;-69
2021/03/29 01:06:22;;;;;;;24.50;4.18;;;;;;;10.55;100.00;102835.63;5051270;28;20107;-68
2021/03/29 01:09:01;;;;;;;25.42;3.50;;;;;;;10.55;100.00;102819.22;5051457;28;20109;-70
2021/03/29 01:11:30;;;;;;;20.50;3.20;;;;;;;10.56;100.00;102826.38;5051519;28;20033;-68
2021/03/29 01:14:00;;;;;;;21.77;3.05;;;;;;;10.55;100.00;102837.50;5051195;28;20068;-67
2021/03/29 01:16:30;;;;;;;35.38;4.13;;;;;;;10.56;100.00;102826.38;5051067;28;20115;-69
2021/03/29 01:18:58;;;;;;;34.20;3.85;;;;;;;10.54;100.00;102823.00;5051382;28;20115;-69
2021/03/29 01:21:44;;;;;;;21.30;4.18;;;;;;;10.55;100.00;102819.22;5051151;28;20067;-68
2021/03/29 01:24:38;;;;;;;25.83;4.35;;;;;;;10.55;100.00;102818.38;5051024;28;20116;-69
2021/03/29 01:27:04;;;;;;;28.35;4.32;;;;;;;10.55;100.00;102824.69;5051051;28;20079;-69
2021/03/29 01:29:31;;;;;;;25.77;3.97;;;;;;;10.54;100.00;102817.53;5050971;28;20033;-70
2021/03/29 01:31:59;;;;;;;24.42;3.88;;;;;;;10.54;100.00;102803.88;5051055;28;20454;-67
2021/03/29 01:34:27;;;;;;;26.42;4.22;;;;;;;10.55;100.00;102811.03;5051017;28;20483;-69
2021/03/29 01:36:53;;;;;;;21.35;3.85;;;;;;;10.54;100.00;102798.41;5049623;28;20075;-69
2021/03/29 01:39:20;;;;;;;30.15;6.00;;;;;;;10.55;100.00;102808.28;5050732;28;20418;-69
2021/03/29 01:41:47;;;;;;;23.98;4.85;;;;;;;10.53;100.00;102804.91;5049568;28;20041;-69
2021/03/29 01:44:13;;;;;;;29.15;4.72;;;;;;;10.54;100.00;102817.53;5050804;28;20041;-68
2021/03/29 01:46:39;;;;;;;27.10;4.10;;;;;;;10.54;100.00;102820.25;5050797;28;20060;-69
2021/03/29 01:49:05;;;;;;;24.20;5.38;;;;;;;10.54;100.00;102817.53;5050816;28;20491;-68
2021/03/29 01:51:31;;;;;;;30.55;4.75;;;;;;;10.54;100.00;102817.53;5050625;28;20071;-69
2021/03/29 01:54:00;;;;;;;24.60;4.32;;;;;;;10.54;100.00;102812.06;5053936;28;20046;-69
2021/03/29 01:56:25;;;;;;;24.30;4.90;;;;;;;10.54;100.00;102820.25;5054785;28;20391;-68
2021/03/29 01:58:51;;;;;;;35.58;4.93;;;;;;;10.54;100.00;102805.75;5054873;28;20052;-70
2021/03/29 02:01:17;;;;;;;28.80;5.10;;;;;;;10.54;100.00;102809.31;5053394;28;20479;-69
2021/03/29 02:03:43;;;;;;;30.98;4.55;;;;;;;10.51;100.00;102807.00;5053268;28;20491;-68
2021/03/29 02:06:11;;;;;;;31.58;3.90;;;;;;;10.53;100.00;102804.06;5053300;28;20037;-69
2021/03/29 02:08:39;;;;;;;23.45;3.42;;;;;;;10.51;100.00;102807.00;5054566;28;20040;-68
2021/03/29 02:11:05;;;;;;;30.52;4.85;;;;;;;10.51;100.00;102812.47;5054356;28;20059;-70
2021/03/29 02:13:35;;;;;;;26.92;4.28;;;;;;;10.49;100.00;102803.59;5054520;28;20479;-69
2021/03/29 02:16:04;;;;;;;26.20;4.63;;;;;;;10.49;100.00;102808.22;5054519;28;20033;-68
2021/03/29 02:18:36;;;;;;;36.47;5.18;;;;;;;10.50;100.00;102816.22;5054372;28;20033;-70
2021/03/29 02:21:06;;;;;;;23.55;3.67;;;;;;;10.47;100.00;102816.63;5054458;28;20032;-69
2021/03/29 02:23:33;;;;;;;31.55;5.25;;;;;;;10.47;100.00;102804.84;5054125;28;20037;-69
2021/03/29 02:26:01;;;;;;;33.22;6.15;;;;;;;10.48;100.00;102807.38;5054031;28;20060;-69
2021/03/29 02:28:27;;;;;;;27.67;4.80;;;;;;;10.47;100.00;102811.16;5052828;28;20112;-69
2021/03/29 02:30:53;;;;;;;28.35;4.50;;;;;;;10.46;100.00;102809.47;5054041;28;20037;-70
2021/03/29 02:33:20;;;;;;;30.50;4.20;;;;;;;10.46;100.00;102812.19;5054253;28;20037;-69
2021/03/29 02:35:47;;;;;;;30.80;4.47;;;;;;;10.46;100.00;102803.16;5053963;28;20417;-70
2021/03/29 02:38:15;;;;;;;22.02;3.45;;;;;;;10.44;100.00;102806.09;5053990;28;20036;-67
2021/03/29 02:40:42;;;;;;;28.55;4.45;;;;;;;10.43;100.00;102798.09;5053923;28;20028;-69
2021/03/29 02:43:09;;;;;;;27.98;4.72;;;;;;;10.44;100.00;102800.63;5053928;28;20041;-69
2021/03/29 02:45:40;;;;;;;31.83;5.78;;;;;;;10.43;100.00;102803.56;5053803;28;20033;-70
2021/03/29 02:48:08;;;;;;;34.42;4.55;;;;;;;10.42;100.00;102799.97;5052856;28;20044;-70
2021/03/29 02:50:38;;;;;;;28.75;5.15;;;;;;;10.42;100.00;102810.91;5053756;28;20124;-69
2021/03/29 02:53:09;;;;;;;32.75;5.40;;;;;;;10.42;100.00;102808.16;5053856;28;20040;-69
2021/03/29 02:55:37;;;;;;;29.00;5.38;;;;;;;10.42;100.00;102818.25;5053659;28;20067;-69
2021/03/29 02:58:04;;;;;;;35.17;5.85;;;;;;;10.40;100.00;102802.03;5052302;28;20072;-69
2021/03/29 03:00:32;;;;;;;25.67;3.55;;;;;;;10.40;100.00;102810.22;5053596;28;20041;-70
2021/03/29 03:03:00;;;;;;;25.35;4.72;;;;;;;10.39;100.00;102808.53;5053619;28;20040;-70
2021/03/29 03:05:32;;;;;;;29.17;4.57;;;;;;;10.38;100.00;102811.44;5052914;28;20119;-69
2021/03/29 03:07:59;;;;;;;34.05;4.32;;;;;;;10.37;100.00;102804.31;5053506;28;20036;-69
2021/03/29 03:10:27;;;;;;;37.53;4.60;;;;;;;10.36;100.00;102802.59;5053815;28;20044;-70
2021/03/29 03:12:55;;;;;;;21.17;4.38;;;;;;;10.37;100.00;102802.41;5053264;28;20120;-69
2021/03/29 03:15:23;;;;;;;33.97;4.07;;;;;;;10.35;100.00;102795.47;5053204;28;20353;-69
2021/03/29 03:17:51;;;;;;;30.55;4.55;;;;;;;10.35;100.00;102807.22;5053325;28;20040;-69
2021/03/29 03:20:18;;;;;;;40.92;5.60;;;;;;;10.34;100.00;102791.88;5053350;28;20043;-69
2021/03/29 03:22:52;;;;;;;30.80;4.53;;;;;;;10.33;100.00;102798.38;5053085;28;20483;-68
2021/03/29 03:25:18;;;;;;;38.78;4.70;;;;;;;10.32;100.00;102807.63;5053028;28;20029;-69
2021/03/29 03:27:47;;;;;;;29.63;3.70;;;;;;;10.31;100.00;102797.72;5052880;28;20494;-68
2021/03/29 03:30:21;;;;;;;32.33;4.25;;;;;;;10.31;100.00;102795.00;5052853;28;20041;-70
2021/03/29 03:32:47;;;;;;;25.38;4.03;;;;;;;10.31;100.00;102795.00;5051403;28;20419;-69
2021/03/29 03:35:16;;;;;;;20.02;3.80;;;;;;;10.31;100.00;102803.19;5052901;28;20041;-68
2021/03/29 03:37:47;;;;;;;29.35;4.22;;;;;;;10.30;100.00;102809.69;5052958;28;20040;-69
2021/03/29 03:40:13;;;;;;;22.02;4.57;;;;;;;10.27;100.00;102804.63;5052899;28;20040;-69
2021/03/29 03:42:41;;;;;;;24.63;3.33;;;;;;;10.27;100.00;102805.47;5052881;28;20511;-70
2021/03/29 03:45:09;;;;;;;25.42;4.18;;;;;;;10.26;100.00;102802.94;5052700;28;20049;-70
2021/03/29 03:47:37;;;;;;;28.98;5.00;;;;;;;10.27;100.00;102804.63;5051414;28;20041;-69
2021/03/29 03:50:05;;;;;;;28.17;4.15;;;;;;;10.28;100.00;102800.84;5052448;28;20098;-69
2021/03/29 03:52:32;;;;;;;32.90;4.85;;;;;;;10.28;100.00;102798.13;5052672;28;20064;-70
2021/03/29 03:54:58;;;;;;;32.95;4.13;;;;;;;10.29;100.00;102801.69;5051263;28;20094;-68
2021/03/29 03:57:24;;;;;;;21.95;4.00;;;;;;;10.29;100.00;102799.81;5051353;28;20068;-69
2021/03/29 03:59:50;;;;;;;27.25;5.22;;;;;;;10.28;100.00;102800.84;5052392;28;20115;-68
2021/03/29 04:02:16;;;;;;;21.48;5.32;;;;;;;10.27;100.00;102799.16;5052391;28;20032;-70
2021/03/29 04:04:42;;;;;;;23.70;3.70;;;;;;;10.27;100.00;102800.00;5052347;28;20094;-69
2021/03/29 04:07:08;;;;;;;27.50;5.25;;;;;;;10.26;100.00;102797.47;5052327;28;20461;-70
2021/03/29 04:10:00;;;;;;;23.30;4.28;;;;;;;10.24;100.00;102802.28;5050876;28;20091;-69
2021/03/29 04:12:19;;;;;;;24.63;4.18;;;;;;;10.23;100.00;102798.69;5052090;28;20076;-68
2021/03/29 04:14:45;;;;;;;21.67;4.53;;;;;;;10.20;100.00;102799.03;5051941;28;20075;-69
2021/03/29 04:17:10;;;;;;;21.20;3.65;;;;;;;10.21;100.00;102806.22;5051035;28;20091;-69
2021/03/29 04:19:36;;;;;;;26.02;4.13;;;;;;;10.22;100.00;102796.13;5052073;28;20407;-69
2021/03/29 04:22:04;;;;;;;30.45;3.90;;;;;;;10.23;100.00;102795.09;5052040;28;20037;-69
2021/03/29 04:24:31;;;;;;;22.15;3.08;;;;;;;10.22;100.00;102804.34;5051934;28;20147;-70
2021/03/29 04:26:57;;;;;;;18.45;3.67;;;;;;;10.22;100.00;102796.13;5051989;28;20065;-68
2021/03/29 04:29:26;;;;;;;16.92;3.10;;;;;;;10.21;100.00;102797.19;5051939;28;20063;-69
2021/03/29 04:31:53;;;;;;;20.33;3.20;;;;;;;10.22;100.00;102804.34;5051573;28;20057;-70
2021/03/29 04:34:19;;;;;;;21.48;3.88;;;;;;;10.20;100.00;102793.56;5051581;28;20380;-70
2021/03/29 04:36:45;;;;;;;26.65;4.55;;;;;;;10.21;100.00;102799.91;5051664;28;20040;-68
2021/03/29 04:39:11;;;;;;;20.15;3.40;;;;;;;10.22;100.00;102802.44;5051646;28;20076;-68
2021/03/29 04:41:37;;;;;;;30.05;4.43;;;;;;;10.22;100.00;102801.59;5052359;28;20475;-68
2021/03/29 04:44:03;;;;;;;26.67;4.05;;;;;;;10.22;100.00;102796.97;5051709;28;20403;-69
2021/03/29 04:46:29;;;;;;;18.65;3.33;;;;;;;10.23;100.00;102801.41;5051574;28;20045;-70
2021/03/29 04:48:54;;;;;;;22.98;3.42;;;;;;;10.18;100.00;102798.38;5051471;28;20483;-69
2021/03/29 04:51:20;;;;;;;21.90;3.85;;;;;;;10.18;100.00;102811.19;5051378;28;20178;-68
2021/03/29 04:53:46;;;;;;;16.27;3.22;;;;;;;10.17;100.00;102798.56;5051455;28;20036;-69
2021/03/29 04:56:13;;;;;;;20.48;4.20;;;;;;;10.16;100.00;102805.94;5051517;28;20045;-69
2021/03/29 04:58:38;;;;;;;16.75;2.92;;;;;;;10.17;100.00;102809.50;5051456;28;20044;-70
2021/03/29 05:01:04;;;;;;;14.55;2.70;;;;;;;10.16;100.00;102802.34;5051413;28;20479;-69
2021/03/29 05:03:30;;;;;;;20.58;3.35;;;;;;;10.16;100.00;102805.06;5049804;28;20475;-69
2021/03/29 05:05:55;;;;;;;19.30;3.47;;;;;;;10.15;100.00;102796.03;5051215;28;20037;-69
2021/03/29 05:08:21;;;;;;;23.92;3.63;;;;;;;10.16;100.00;102811.38;5051094;28;20037;-70
2021/03/29 05:10:46;;;;;;;24.13;4.57;;;;;;;10.16;100.00;102814.13;5051157;28;20387;-70
2021/03/29 05:13:12;;;;;;;19.55;4.30;;;;;;;10.17;100.00;102814.97;5051147;28;20041;-68
2021/03/29 05:15:38;;;;;;;27.08;4.93;;;;;;;10.16;100.00;102802.34;5049890;28;20399;-69
2021/03/29 05:18:04;;;;;;;20.65;3.53;;;;;;;10.18;100.00;102817.50;5051171;28;20041;-68
2021/03/29 05:20:30;;;;;;;25.08;4.68;;;;;;;10.17;100.00;102815.81;5050973;28;20531;-67
2021/03/29 05:22:55;;;;;;;22.73;4.18;;;;;;;10.18;100.00;102822.97;5049796;28;20118;-68
2021/03/29 05:25:21;;;;;;;28.88;4.97;;;;;;;10.19;100.00;102823.81;5050916;28;20044;-70
2021/03/29 05:27:47;;;;;;;19.75;3.75;;;;;;;10.18;100.00;102827.56;5050477;28;20033;-68
2021/03/29 05:30:13;;;;;;;18.27;4.15;;;;;;;10.18;100.00;102828.41;5050935;28;20052;-68
2021/03/29 05:32:39;;;;;;;26.73;4.82;;;;;;;10.19;100.00;102837.47;5050851;28;20576;-68
2021/03/29 05:35:05;;;;;;;29.90;4.97;;;;;;;10.19;100.00;102845.66;5050831;28;20064;-68
2021/03/29 05:37:31;;;;;;;22.55;4.95;;;;;;;10.18;100.00;102854.88;5050907;28;20037;-70
2021/03/29 05:39:58;;;;;;;24.33;5.18;;;;;;;10.18;100.00;102843.97;5051113;28;20033;-68
2021/03/29 05:42:26;;;;;;;28.00;5.93;;;;;;;10.19;100.00;102851.13;5050819;28;20083;-69
2021/03/29 05:44:58;;;;;;;27.85;4.00;;;;;;;10.20;100.00;102847.34;5050668;28;20055;-69
2021/03/29 05:47:24;;;;;;;30.08;4.22;;;;;;;10.19;100.00;102840.19;5050915;28;20040;-68
2021/03/29 05:49:50;;;;;;;28.30;6.40;;;;;;;10.20;100.00;102847.34;5050850;28;20045;-68
2021/03/29 05:52:15;;;;;;;21.55;4.72;;;;;;;10.20;100.00;102839.16;5050710;28;20132;-67
2021/03/29 05:54:41;;;;;;;35.13;5.15;;;;;;;10.21;100.00;102849.06;5049278;28;20041;-69
2021/03/29 05:57:09;;;;;;;24.98;5.07;;;;;;;10.19;100.00;102845.66;5050645;28;20045;-69
2021/03/29 05:59:41;;;;;;;28.58;6.03;;;;;;;10.19;100.00;102856.56;5050632;28;20033;-69
2021/03/29 06:02:09;;;;;;;26.83;5.43;;;;;;;10.19;100.00;102862.03;5050697;28;20033;-69
2021/03/29 06:04:43;;;;;;;26.38;5.63;;;;;;;10.20;100.00;102858.28;5050561;28;20116;-69
2021/03/29 06:07:10;;;;;;;;;;;;;;;10.20;100.00;102858.28;5051121;28;20060;-70
2021/03/29 06:09:36;;;;;;;27.33;4.85;;;;;;;10.21;100.00;102865.47;5050558;28;19920;-69
2021/03/29 06:12:01;;;;;;;32.22;4.95;;;;;;;10.22;100.00;102864.41;5050526;28;20041;-68
2021/03/29 06:14:29;;;;;;;29.63;4.55;;;;;;;10.24;100.00;102859.63;5050349;28;20041;-70
2021/03/29 06:17:04;;;;;;;26.60;4.35;;;;;;;10.22;100.00;102864.41;5050498;28;20479;-70
2021/03/29 06:19:35;;;;;;;;;;;;;;;10.22;100.00;102864.41;5051083;28;20060;-70
2021/03/29 06:22:30;;;;;;;18.75;4.07;;;;;;;10.22;100.00;102864.41;5050529;28;19966;-68
2021/03/29 06:25:05;;;;;;;25.58;4.85;;;;;;;10.23;100.00;102866.09;5050207;28;20033;-71
2021/03/29 06:27:42;;;;;;;22.52;5.35;;;;;;;10.23;100.00;102863.38;5050525;28;20037;-69
2021/03/29 06:30:26;;;;;;;24.38;3.88;;;;;;;10.22;100.00;102873.47;5050374;28;20116;-69
2021/03/29 06:32:58;;;;;;;19.52;3.55;;;;;;;10.23;100.00;102874.31;5050200;28;20064;-69
2021/03/29 06:35:28;;;;;;;23.70;4.25;;;;;;;10.22;100.00;102867.16;5050204;28;20033;-70
2021/03/29 06:38:13;;;;;;;21.95;3.78;;;;;;;10.24;100.00;102876.03;5050625;28;20178;-68
2021/03/29 06:40:42;;;;;;;26.83;4.57;;;;;;;10.25;100.00;102883.19;5052889;28;20039;-68
2021/03/29 06:43:20;;;;;;;17.10;4.25;;;;;;;10.25;100.00;102883.19;5053718;28;20474;-69
2021/03/29 06:45:47;;;;;;;19.70;3.97;;;;;;;10.25;100.00;102880.44;5053782;28;20061;-70
2021/03/29 06:48:21;;;;;;;24.23;4.65;;;;;;;10.26;100.00;102890.34;5053771;28;20048;-70
2021/03/29 06:50:46;;;;;;;26.98;5.10;;;;;;;10.25;100.00;102885.91;5053712;28;20364;-68
2021/03/29 06:53:24;;;;;;;24.55;4.45;;;;;;;10.25;100.00;102896.84;5053641;28;20090;-69
2021/03/29 06:55:52;;;;;;;14.70;3.28;;;;;;;10.25;100.00;102900.41;5053715;28;20037;-70
2021/03/29 06:58:24;;;;;;;17.85;3.63;;;;;;;10.26;100.00;102901.25;5053492;28;20056;-70
2021/03/29 07:00:54;;;;;;;24.08;4.28;;;;;;;10.23;100.00;102890.69;5053551;28;20127;-68
2021/03/29 07:03:25;;;;;;;16.48;3.70;;;;;;;10.23;100.00;102890.69;5053520;28;20045;-69
2021/03/29 07:05:51;;;;;;;19.13;4.13;;;;;;;10.25;100.00;102894.09;5053447;28;20052;-69
2021/03/29 07:08:18;;;;;;;25.73;3.88;;;;;;;10.27;100.00;102892.03;5053374;28;20033;-70
2021/03/29 07:10:43;;;;;;;17.67;3.78;;;;;;;10.30;100.00;102899.00;5053429;28;20029;-68
2021/03/29 07:13:12;;;;;;;23.73;3.88;;;;;;;10.30;100.00;102899.00;5053163;28;20037;-70
2021/03/29 07:15:40;;;;;;;22.70;3.75;;;;;;;10.31;100.00;102898.81;5053272;28;20494;-70
2021/03/29 07:18:07;;;;;;;21.98;4.03;;;;;;;10.33;100.00;102896.72;5053154;28;20037;-70
2021/03/29 07:20:33;;;;;;;25.27;5.32;;;;;;;10.33;100.00;102904.91;5053081;28;20514;-70
2021/03/29 07:23:00;;;;;;;17.35;3.17;;;;;;;10.35;100.00;102905.56;5053107;28;20037;-69
2021/03/29 07:25:32;;;;;;;17.95;3.85;;;;;;;10.37;100.00;102900.75;5053035;28;20040;-69
2021/03/29 07:27:59;;;;;;;20.88;4.30;;;;;;;10.37;100.00;102902.66;5053072;28;20029;-70
2021/03/29 07:30:45;;;;;;;17.30;3.35;;;;;;;10.40;100.00;102908.56;5053205;28;20037;-70
2021/03/29 07:33:11;;;;;;;16.75;4.47;;;;;;;10.39;100.00;102906.88;5053020;28;20510;-69
2021/03/29 07:35:55;;;;;;;21.40;4.47;;;;;;;10.43;100.00;102913.69;5053024;28;20103;-69
2021/03/29 07:38:23;;;;;;;15.07;3.35;;;;;;;10.45;100.00;102918.94;5050525;28;20056;-70
2021/03/29 07:40:57;;;;;;;16.13;4.28;;;;;;;10.48;100.00;102915.81;5041442;28;20044;-68
2021/03/29 07:43:28;;;;;;;25.05;4.82;;;;;;;10.51;100.00;102927.22;5052911;28;20080;-67
2021/03/29 07:46:05;;;;;;;19.65;3.50;;;;;;;10.53;100.00;102916.94;5064429;28;20040;-64
2021/03/29 07:48:41;;;;;;;22.48;4.03;;;;;;;10.55;100.00;102927.69;5072289;28;20036;-66
2021/03/29 07:51:06;;;;;;;26.02;5.18;;;;;;;10.60;100.00;102927.13;5072295;28;20128;-70
2021/03/29 07:53:43;;;;;;;25.85;4.30;;;;;;;10.64;100.00;102936.63;5072234;28;20127;-69
2021/03/29 07:56:11;;;;;;;20.40;3.65;;;;;;;10.66;100.00;102924.47;5062529;28;20032;-69
2021/03/29 07:58:44;;;;;;;19.40;3.75;;;;;;;10.72;100.00;102914.63;5053038;28;20037;-66
2021/03/29 08:01:11;;;;;;;22.50;5.00;;;;;;;10.77;100.00;102920.41;5057306;28;20410;-67
2021/03/29 08:03:40;;;;;;;16.75;3.60;;;;;;;10.81;100.00;102927.16;5072166;28;20399;-66
2021/03/29 08:06:07;;;;;;;22.63;3.95;;;;;;;10.83;100.00;102931.38;5071867;28;20082;-66
2021/03/29 08:08:40;;;;;;;13.45;3.70;;;;;;;10.84;100.00;102932.25;5033206;28;20047;-64
2021/03/29 08:11:06;;;;;;;23.98;4.07;;;;;;;10.83;100.00;102931.38;5033635;28;20061;-66
2021/03/29 08:13:38;;;;;;;19.35;3.95;;;;;;;10.84;100.00;102932.25;5049546;28;20057;-65
2021/03/29 08:16:15;;;;;;;18.17;3.40;;;;;;;10.87;100.00;102924.50;5046923;28;20036;-67
2021/03/29 08:19:09;;;;;;;12.73;3.35;;;;;;;10.93;100.00;102931.06;5037959;28;20057;-66
2021/03/29 08:21:55;;;;;;;15.75;2.90;;;;;;;10.97;100.00;102931.56;5044036;28;20061;-64
2021/03/29 08:24:33;;;;;;;22.60;3.13;;;;;;;10.99;100.00;102935.78;5035823;28;20052;-69
2021/03/29 08:27:14;;;;;;;24.80;4.07;;;;;;;11.03;100.00;102937.06;5048189;28;20124;-65
2021/03/29 08:29:42;;;;;;;16.00;3.45;;;;;;;11.07;100.00;102938.38;5035740;28;20434;-63
2021/03/29 08:32:28;;;;;;;19.73;4.60;;;;;;;11.13;100.00;102943.09;5037726;28;20136;-65
2021/03/29 08:35:08;;;;;;;17.10;3.25;;;;;;;11.24;100.00;102949.06;5045643;28;20028;-63
2021/03/29 08:37:48;;;;;;;26.23;4.10;;;;;;;11.27;100.00;102948.66;5051441;28;20040;-64
2021/03/29 08:40:32;;;;;;;22.50;3.10;;;;;;;11.30;100.00;102948.31;5035783;28;20029;-67
2021/03/29 08:43:06;;;;;;;18.50;3.08;;;;;;;11.28;100.00;102953.09;5051623;28;20032;-65
2021/03/29 08:45:32;;;;;;;14.38;3.25;;;;;;;11.29;100.00;102952.94;5045852;28;20075;-64
2021/03/29 08:48:02;;;;;;;15.43;3.65;;;;;;;11.31;100.00;102958.22;5057825;28;20047;-67
2021/03/29 08:50:40;;;;;;;15.75;2.85;;;;;;;11.34;100.00;102952.34;5049136;28;20039;-65
2021/03/29 08:53:11;;;;;;;21.33;3.90;;;;;;;11.37;100.00;102954.69;5047830;28;20056;-64
2021/03/29 08:55:42;;;;;;;20.17;2.85;;;;;;;11.40;100.00;102965.22;5040100;28;20051;-64
2021/03/29 08:58:10;;;;;;;20.60;3.47;;;;;;;11.43;100.00;102965.69;5037238;28;20083;-69
2021/03/29 09:00:41;;;;;;;15.55;3.75;;;;;;;11.45;100.00;102970.94;5046073;28;20033;-64
2021/03/29 09:03:18;;;;;;;19.73;3.65;;;;;;;11.43;100.00;102970.31;5039775;28;20033;-65
2021/03/29 09:05:44;;;;;;;15.82;3.03;;;;;;;11.42;100.00;102979.56;5039176;28;20403;-63
2021/03/29 09:08:11;;;;;;;19.17;3.28;;;;;;;11.42;100.00;102985.88;5037791;28;20033;-65
2021/03/29 09:10:37;;;;;;;25.13;4.07;;;;;;;11.46;100.00;102984.47;5038918;28;20041;-65
2021/03/29 09:13:11;;;;;;;20.58;2.95;;;;;;;11.43;100.00;102983.97;5051243;28;20071;-66
2021/03/29 09:15:42;;;;;;;18.20;3.05;;;;;;;11.44;100.00;102980.19;5039163;28;20044;-64
2021/03/29 09:18:11;;;;;;;21.50;3.80;;;;;;;11.48;100.00;102974.16;5050824;28;20495;-62
2021/03/29 09:20:40;;;;;;;15.43;2.92;;;;;;;11.60;100.00;102988.16;5043513;28;20404;-65
2021/03/29 09:23:08;;;;;;;14.90;3.47;;;;;;;11.66;100.00;102992.84;5036990;28;20487;-64
2021/03/29 09:25:38;;;;;;;12.25;3.10;;;;;;;11.73;100.00;102996.50;5050586;28;20124;-64
2021/03/29 09:28:11;;;;;;;11.48;2.53;;;;;;;11.74;100.00;102984.50;5049742;28;20045;-67
2021/03/29 09:30:37;;;;;;;19.42;4.03;;;;;;;11.75;100.00;102997.13;5034728;28;20490;-66
2021/03/29 09:33:04;;;;;;;16.42;3.25;;;;;;;11.74;100.00;102989.13;5049347;28;20058;-66
2021/03/29 09:35:29;;;;;;;15.63;2.92;;;;;;;11.75;100.00;102996.28;5046710;28;20037;-65
2021/03/29 09:37:55;;;;;;;16.73;2.45;;;;;;;11.80;100.00;102998.47;5049053;28;20137;-67
2021/03/29 09:40:21;;;;;;;15.70;3.05;;;;;;;11.87;100.00;102999.38;5050297;28;20037;-69
2021/03/29 09:42:49;;;;;;;14.95;3.17;;;;;;;11.92;100.00;103002.34;5048835;28;20044;-69
2021/03/29 09:45:26;;;;;;;18.38;2.47;;;;;;;11.95;100.00;103005.53;5035514;28;20163;-65
2021/03/29 09:48:03;;;;;;;13.07;2.95;;;;;;;11.98;100.00;103007.06;5049444;28;20043;-68
2021/03/29 09:50:34;;;;;;;14.32;2.58;;;;;;;12.03;100.00;103010.03;5038976;28;20025;-68
2021/03/29 09:53:18;;;;;;;15.77;2.55;;;;;;;12.09;100.00;103003.75;5050792;28;20041;-66
2021/03/29 09:55:49;;;;;;;11.80;3.05;;;;;;;12.17;100.00;103000.03;5050481;28;20039;-66
2021/03/29 09:58:21;;;;;;;14.25;3.13;;;;;;;12.29;100.00;103001.16;5050599;28;20033;-67
2021/03/29 10:00:48;;;;;;;12.93;2.72;;;;;;;12.27;100.00;103001.34;5050604;28;20179;-67
2021/03/29 10:03:18;;;;;;;11.95;3.00;;;;;;;12.27;100.00;103001.34;5050262;28;20082;-66
2021/03/29 10:05:45;;;;;;;12.20;2.85;;;;;;;12.48;100.00;103019.63;5050591;28;20086;-67
2021/03/29 10:08:22;;;;;;;11.40;2.83;;;;;;;12.64;100.00;103018.44;5050854;28;20041;-67
2021/03/29 10:10:58;;;;;;;19.30;2.97;;;;;;;12.59;100.00;103015.47;5050343;28;20033;-67
2021/03/29 10:13:33;;;;;;;14.57;2.70;;;;;;;12.58;100.00;103025.59;5050305;28;20058;-68
2021/03/29 10:16:15;;;;;;;14.13;2.22;;;;;;;12.54;100.00;103028.94;5053697;28;20082;-68
2021/03/29 10:18:41;;;;;;;12.13;2.78;;;;;;;12.54;100.00;103039.91;5054254;28;20037;-67
2021/03/29 10:21:07;;;;;;;9.52;2.15;;;;;;;12.54;100.00;103034.44;5054337;28;20041;-67
2021/03/29 10:23:33;;;;;;;18.13;3.33;;;;;;;12.56;100.00;103037.81;5053650;28;20388;-66
2021/03/29 10:26:19;;;;;;;15.70;2.80;;;;;;;12.61;100.00;103035.31;5034502;28;20038;-67
2021/03/29 10:29:11;;;;;;;10.20;2.47;;;;;;;12.72;100.00;103032.00;5033901;28;20497;-67
2021/03/29 10:31:37;;;;;;;22.75;3.78;;;;;;;12.74;100.00;103038.13;5033705;28;20041;-66
2021/03/29 10:34:03;;;;;;;10.77;2.38;;;;;;;12.91;100.00;103035.88;5034141;28;20048;-67
2021/03/29 10:36:30;;;;;;;10.52;2.67;;;;;;;13.09;100.00;103038.91;5034304;28;20532;-67
2021/03/29 10:38:58;;;;;;;9.98;2.60;;;;;;;12.97;100.00;103033.16;5033984;28;20049;-67
2021/03/29 10:41:24;;;;;;;11.63;3.05;;;;;;;12.92;100.00;103043.06;5034105;28;20025;-66
2021/03/29 10:43:50;;;;;;;10.38;2.00;;;;;;;12.91;100.00;103044.97;5033955;28;20172;-67
2021/03/29 10:46:16;;;;;;;14.40;2.25;;;;;;;12.92;100.00;103043.91;5033861;28;20567;-68
2021/03/29 10:48:42;;;;;;;10.23;2.40;;;;;;;12.94;100.00;103044.53;5033789;28;20038;-67
2021/03/29 10:51:08;;;;;;;10.10;2.55;;;;;;;13.20;100.00;103040.25;5033666;28;20040;-67
2021/03/29 10:53:35;;;;;;;12.57;2.97;;;;;;;13.18;100.00;103042.34;5033428;28;20393;-67
2021/03/29 10:56:01;;;;;;;10.15;2.70;;;;;;;13.20;100.00;103040.25;5033631;28;20476;-67
2021/03/29 10:58:27;;;;;;;10.48;2.40;;;;;;;13.31;100.00;103042.38;5033713;28;20037;-67
2021/03/29 11:00:53;;;;;;;13.63;3.15;;;;;;;13.29;100.00;103039.00;5033454;28;20044;-68
2021/03/29 11:03:18;;;;;;;9.48;3.00;;;;;;;13.34;100.00;103041.97;5033371;28;20548;-67
2021/03/29 11:05:44;;;;;;;15.75;3.13;;;;;;;13.32;100.00;103049.56;5033473;28;20095;-67
2021/03/29 11:08:16;;;;;;;11.25;3.33;;;;;;;13.49;100.00;103045.41;5033307;28;20065;-67
2021/03/29 11:10:41;;;;;;;11.10;3.45;;;;;;;13.37;100.00;103041.59;5033473;28;20072;-66
2021/03/29 11:13:07;;;;;;;9.02;3.05;;;;;;;13.36;100.00;103050.84;5033324;28;20045;-68
2021/03/29 11:15:34;;;;;;;21.38;3.20;;;;;;;13.41;100.00;103055.75;5033448;28;20048;-67
2021/03/29 11:18:02;;;;;;;7.90;2.50;;;;;;;13.49;100.00;103056.38;5033530;28;20029;-67
2021/03/29 11:20:27;;;;;;;10.90;3.00;;;;;;;13.38;100.00;103053.41;5033303;28;20405;-67